createdAt,value
2022-10-03T00:03:33.830Z,13.84
2022-10-03T00:08:47.738Z,13.81
2022-10-03T00:14:19.044Z,13.78
2022-10-03T00:19:48.491Z,13.77
2022-10-03T00:24:59.041Z,13.75
2022-10-03T00:30:13.400Z,13.71
2022-10-03T00:35:44.760Z,13.67
2022-10-03T00:40:55.775Z,13.64
2022-10-03T00:46:06.714Z,13.61
2022-10-03T00:51:25.850Z,13.61
2022-10-03T00:56:45.922Z,13.56
2022-10-03T01:01:50.031Z,13.55
2022-10-03T01:07:13.549Z,13.53
2022-10-03T01:12:33.706Z,13.51
2022-10-03T01:17:48.009Z,13.53
2022-10-03T01:23:07.714Z,13.49
2022-10-03T01:28:37.080Z,13.41
2022-10-03T01:34:00.871Z,13.39
2022-10-03T01:39:26.537Z,13.38
2022-10-03T01:44:30.873Z,13.41
2022-10-03T01:50:13.052Z,13.38
2022-10-03T01:55:28.250Z,13.40
2022-10-03T02:00:56.656Z,13.36
2022-10-03T02:06:14.925Z,13.39
2022-10-03T02:11:40.496Z,13.32
2022-10-03T02:16:58.255Z,13.30
2022-10-03T02:22:00.605Z,13.28
2022-10-03T02:27:11.823Z,13.23
2022-10-03T02:32:46.715Z,13.22
2022-10-03T02:38:11.672Z,13.19
2022-10-03T02:43:25.573Z,13.19
2022-10-03T02:48:52.094Z,13.15
2022-10-03T02:54:05.611Z,13.12
2022-10-03T02:59:15.474Z,13.12
2022-10-03T03:04:52.201Z,13.08
2022-10-03T03:10:09.160Z,13.09
2022-10-03T03:15:28.929Z,13.09
2022-10-03T03:20:39.048Z,13.08
2022-10-03T03:25:52.519Z,13.08
2022-10-03T03:31:03.775Z,13.07
2022-10-03T03:36:24.397Z,13.09
2022-10-03T03:41:51.028Z,13.13
2022-10-03T03:47:19.646Z,13.11
2022-10-03T03:52:46.391Z,13.12
2022-10-03T03:58:07.182Z,13.15
2022-10-03T04:03:30.822Z,13.19
2022-10-03T04:08:41.525Z,13.16
2022-10-03T04:14:21.855Z,13.14
2022-10-03T04:19:38.665Z,13.14
2022-10-03T04:24:58.563Z,13.12
2022-10-03T04:30:11.598Z,13.09
2022-10-03T04:35:28.463Z,13.09
2022-10-03T04:40:47.967Z,13.02
2022-10-03T04:45:55.810Z,13.00
2022-10-03T04:51:12.777Z,12.97
2022-10-03T04:56:23.711Z,12.96
2022-10-03T05:01:50.681Z,12.89
2022-10-03T05:07:13.989Z,12.90
2022-10-03T05:12:20.944Z,12.87
2022-10-03T05:17:42.478Z,12.91
2022-10-03T05:22:49.816Z,12.97
2022-10-03T05:28:01.331Z,13.00
2022-10-03T05:33:10.345Z,13.02
2022-10-03T05:38:34.865Z,13.07
2022-10-03T05:43:58.635Z,13.20
2022-10-03T05:49:19.300Z,13.22
2022-10-03T05:54:33.159Z,13.29
2022-10-03T05:59:49.319Z,13.32
2022-10-03T06:05:02.983Z,13.32
2022-10-03T06:10:14.384Z,13.34
2022-10-03T06:15:54.672Z,13.35
2022-10-03T06:21:14.686Z,13.32
2022-10-03T06:26:40.098Z,13.38
2022-10-03T06:32:06.920Z,13.39
2022-10-03T06:37:46.262Z,13.54
2022-10-03T06:43:16.296Z,13.68
2022-10-03T06:48:29.840Z,13.87
2022-10-03T06:53:34.385Z,13.91
2022-10-03T06:58:57.719Z,13.85
2022-10-03T07:04:24.144Z,13.85
2022-10-03T07:09:29.529Z,13.91
2022-10-03T07:14:41.802Z,14.02
2022-10-03T07:20:04.856Z,14.08
2022-10-03T07:25:21.945Z,14.12
2022-10-03T07:30:25.778Z,14.07
2022-10-03T07:35:58.506Z,14.13
2022-10-03T07:41:02.850Z,14.18
2022-10-03T07:46:36.468Z,14.20
2022-10-03T07:52:16.343Z,14.31
2022-10-03T07:57:38.117Z,14.65
2022-10-03T08:02:58.008Z,14.67
2022-10-03T08:08:25.510Z,14.67
2022-10-03T08:13:55.120Z,14.80
2022-10-03T08:19:18.664Z,14.82
2022-10-03T08:24:45.466Z,14.96
2022-10-03T08:30:17.764Z,15.08
2022-10-03T08:35:50.278Z,15.22
2022-10-03T08:41:10.126Z,15.22
2022-10-03T08:46:39.778Z,15.14
2022-10-03T08:52:21.388Z,15.45
2022-10-03T08:57:45.364Z,15.67
2022-10-03T09:03:43.037Z,15.69
2022-10-03T09:08:57.278Z,15.76
2022-10-03T09:14:11.002Z,15.75
2022-10-03T09:19:38.653Z,15.66
2022-10-03T09:25:02.541Z,15.72
2022-10-03T09:30:04.358Z,15.75
2022-10-03T09:35:33.499Z,15.79
2022-10-03T09:41:12.845Z,15.90
2022-10-03T09:47:18.427Z,15.79
2022-10-03T09:52:33.220Z,15.84
2022-10-03T09:57:46.801Z,15.95
2022-10-03T10:03:06.655Z,15.81
2022-10-03T10:08:26.505Z,15.80
2022-10-03T10:13:49.738Z,16.01
2022-10-03T10:19:14.154Z,16.14
2022-10-03T10:24:36.676Z,16.33
2022-10-03T10:29:53.446Z,16.50
2022-10-03T10:35:23.277Z,16.65
2022-10-03T10:40:43.948Z,16.83
2022-10-03T10:46:00.816Z,16.88
2022-10-03T10:51:42.622Z,16.85
2022-10-03T10:57:07.954Z,16.60
2022-10-03T11:02:18.491Z,16.54
2022-10-03T11:07:45.789Z,16.35
2022-10-03T11:12:53.174Z,16.31
2022-10-03T11:18:22.614Z,16.61
2022-10-03T11:23:39.927Z,16.88
2022-10-03T11:29:06.593Z,17.06
2022-10-03T11:34:29.925Z,17.01
2022-10-03T11:39:41.997Z,17.06
2022-10-03T11:45:01.145Z,17.14
2022-10-03T11:50:20.995Z,17.19
2022-10-03T11:55:48.331Z,17.22
2022-10-03T12:01:02.003Z,17.07
2022-10-03T12:06:33.052Z,17.13
2022-10-03T12:11:44.326Z,17.13
2022-10-03T12:16:58.461Z,17.08
2022-10-03T12:22:21.342Z,16.99
2022-10-03T12:27:41.680Z,17.01
2022-10-03T12:32:52.234Z,17.00
2022-10-03T12:38:34.638Z,16.97
2022-10-03T12:44:08.566Z,17.10
2022-10-03T12:49:26.350Z,17.30
2022-10-03T12:54:34.511Z,17.42
2022-10-03T12:59:42.224Z,17.40
2022-10-03T13:04:59.508Z,17.51
2022-10-03T13:10:04.133Z,17.66
2022-10-03T13:15:43.121Z,17.77
2022-10-03T13:20:59.869Z,17.90
2022-10-03T13:26:31.595Z,17.85
2022-10-03T13:31:35.324Z,17.94
2022-10-03T13:36:50.165Z,17.80
2022-10-03T13:42:32.143Z,17.79
2022-10-03T13:48:13.708Z,17.97
2022-10-03T13:53:40.255Z,18.04
2022-10-03T13:59:17.685Z,17.96
2022-10-03T14:04:35.321Z,18.01
2022-10-03T14:09:39.369Z,17.93
2022-10-03T14:14:53.497Z,17.64
2022-10-03T14:20:27.183Z,17.29
2022-10-03T14:25:39.056Z,17.02
2022-10-03T14:31:05.603Z,17.01
2022-10-03T14:36:19.942Z,17.03
2022-10-03T14:41:30.613Z,17.02
2022-10-03T14:46:39.917Z,17.16
2022-10-03T14:51:55.016Z,17.10
2022-10-03T14:56:58.839Z,17.13
2022-10-03T15:02:20.364Z,17.02
2022-10-03T15:07:36.530Z,16.99
2022-10-03T15:12:41.371Z,16.79
2022-10-03T15:17:52.746Z,16.74
2022-10-03T15:22:58.421Z,16.67
2022-10-03T15:28:06.336Z,16.59
2022-10-03T15:33:34.648Z,16.49
2022-10-03T15:38:41.886Z,16.33
2022-10-03T15:43:44.124Z,16.24
2022-10-03T15:48:51.154Z,16.09
2022-10-03T15:53:58.412Z,15.95
2022-10-03T15:59:06.544Z,15.94
2022-10-03T16:04:19.764Z,15.81
2022-10-03T16:09:39.258Z,15.82
2022-10-03T16:14:53.351Z,15.67
2022-10-03T16:19:58.804Z,15.59
2022-10-03T16:25:16.217Z,15.60
2022-10-03T16:30:22.346Z,15.36
2022-10-03T16:35:31.298Z,15.31
2022-10-03T16:40:37.873Z,15.30
2022-10-03T16:45:47.292Z,15.28
2022-10-03T16:50:53.476Z,15.23
2022-10-03T16:56:03.585Z,15.17
2022-10-03T17:01:50.022Z,15.14
2022-10-03T17:06:57.134Z,14.98
2022-10-03T17:12:00.904Z,15.01
2022-10-03T17:17:25.645Z,14.88
2022-10-03T17:22:37.893Z,14.85
2022-10-03T17:27:41.817Z,14.84
2022-10-03T17:32:45.479Z,14.83
2022-10-03T17:37:53.916Z,14.70
2022-10-03T17:43:05.863Z,14.74
2022-10-03T17:48:23.087Z,14.63
2022-10-03T17:53:29.372Z,14.63
2022-10-03T17:58:33.016Z,14.60
2022-10-03T18:03:44.781Z,14.57
2022-10-03T18:08:50.424Z,14.53
2022-10-03T18:14:35.710Z,14.50
2022-10-03T18:19:40.346Z,14.47
2022-10-03T18:25:32.589Z,14.44
2022-10-03T18:30:45.577Z,14.34
2022-10-03T18:35:49.694Z,14.26
2022-10-03T18:40:58.147Z,14.24
2022-10-03T18:46:15.417Z,14.23
2022-10-03T18:51:31.388Z,14.20
2022-10-03T18:56:34.233Z,14.28
2022-10-03T19:01:45.324Z,14.23
2022-10-03T19:06:51.888Z,14.19
2022-10-03T19:12:12.186Z,14.21
2022-10-03T19:17:36.089Z,14.18
2022-10-03T19:22:40.835Z,14.23
2022-10-03T19:27:52.306Z,14.24
2022-10-03T19:32:59.134Z,14.29
2022-10-03T19:38:06.250Z,14.28
2022-10-03T19:43:49.494Z,14.24
2022-10-03T19:49:00.233Z,14.16
2022-10-03T19:54:27.737Z,14.17
2022-10-03T20:00:00.637Z,14.19
2022-10-03T20:05:02.630Z,14.25
2022-10-03T20:10:32.661Z,14.23
2022-10-03T20:15:38.637Z,14.22
2022-10-03T20:20:41.100Z,14.23
2022-10-03T20:26:00.276Z,14.13
2022-10-03T20:31:02.105Z,14.15
2022-10-03T20:36:13.786Z,14.13
2022-10-03T20:41:52.456Z,14.10
2022-10-03T20:47:15.833Z,14.11
2022-10-03T20:52:21.328Z,14.15
2022-10-03T20:57:44.240Z,14.15
2022-10-03T21:02:59.370Z,14.10
2022-10-03T21:08:14.704Z,14.05
2022-10-03T21:13:36.146Z,14.04
2022-10-03T21:18:41.101Z,14.06
2022-10-03T21:23:57.509Z,14.06
2022-10-03T21:29:24.512Z,14.04
2022-10-03T21:34:46.508Z,14.06
2022-10-03T21:39:54.602Z,14.16
2022-10-03T21:45:11.485Z,14.11
2022-10-03T21:50:37.416Z,14.07
2022-10-03T21:56:12.766Z,14.10
2022-10-03T22:01:17.101Z,14.18
2022-10-03T22:06:22.298Z,14.20
2022-10-03T22:11:30.672Z,14.25
2022-10-03T22:16:39.865Z,14.26
2022-10-03T22:21:49.889Z,14.26
2022-10-03T22:27:20.936Z,14.34
2022-10-03T22:32:34.838Z,14.38
2022-10-03T22:37:37.611Z,14.37
2022-10-03T22:42:44.514Z,14.34
2022-10-03T22:47:51.969Z,14.40
2022-10-03T22:52:54.251Z,14.31
2022-10-03T22:57:57.283Z,14.33
2022-10-03T23:03:07.314Z,14.31
2022-10-03T23:08:46.753Z,14.26
2022-10-03T23:13:49.733Z,14.24
2022-10-03T23:19:22.765Z,14.24
2022-10-03T23:24:46.630Z,14.23
2022-10-03T23:30:11.461Z,14.22
2022-10-03T23:35:20.433Z,14.20
2022-10-03T23:40:45.387Z,14.18
2022-10-03T23:45:50.598Z,14.13
2022-10-03T23:51:06.058Z,14.11
2022-10-03T23:56:26.662Z,14.07
